createdAt,value
2022-12-18T00:00:07.673Z,6.50
2022-12-18T00:05:11.088Z,6.30
2022-12-18T00:10:15.364Z,5.80
2022-12-18T00:15:18.824Z,4.50
2022-12-18T00:20:26.716Z,6.50
2022-12-18T00:25:30.138Z,7.30
2022-12-18T00:30:33.496Z,7.10
2022-12-18T00:35:36.784Z,3.60
2022-12-18T00:40:40.215Z,6.30
2022-12-18T00:45:43.518Z,5.70
2022-12-18T00:50:46.963Z,5.40
2022-12-18T00:55:50.242Z,6.40
2022-12-18T01:00:53.885Z,4.70
2022-12-18T01:05:57.297Z,5.70
2022-12-18T01:11:00.607Z,4.80
2022-12-18T01:16:04.152Z,5.30
2022-12-18T01:21:13.811Z,6.30
2022-12-18T01:26:17.604Z,4.40
2022-12-18T01:31:24.347Z,3.80
2022-12-18T01:36:30.858Z,6.30
2022-12-18T01:41:54.193Z,4.90
2022-12-18T01:46:57.479Z,5.70
2022-12-18T01:52:00.804Z,7.60
2022-12-18T01:57:04.287Z,8.80
2022-12-18T02:02:08.954Z,6.30
2022-12-18T02:07:36.830Z,5.50
2022-12-18T02:12:58.317Z,5.10
2022-12-18T02:18:11.788Z,6.50
2022-12-18T02:23:36.733Z,4.60
2022-12-18T02:29:15.515Z,5.50
2022-12-18T02:34:21.459Z,3.30
2022-12-18T02:39:28.261Z,3.30
2022-12-18T02:44:31.590Z,3.60
2022-12-18T02:50:12.126Z,5.90
2022-12-18T02:55:21.693Z,5.10
2022-12-18T03:00:34.944Z,4.10
2022-12-18T03:05:48.644Z,4.80
2022-12-18T03:11:01.148Z,5.30
2022-12-18T03:16:09.486Z,4.20
2022-12-18T03:21:14.966Z,5.00
2022-12-18T03:26:23.172Z,1.90
2022-12-18T03:31:29.901Z,3.30
2022-12-18T03:36:33.552Z,4.80
2022-12-18T03:42:01.864Z,5.40
2022-12-18T03:47:16.481Z,6.60
2022-12-18T03:52:36.749Z,2.70
2022-12-18T03:57:44.282Z,4.60
2022-12-18T04:02:53.394Z,5.80
2022-12-18T04:07:58.242Z,7.10
2022-12-18T04:13:01.617Z,6.90
2022-12-18T04:18:05.039Z,7.30
2022-12-18T04:23:08.399Z,5.60
2022-12-18T04:28:11.892Z,6.00
2022-12-18T04:33:15.653Z,5.40
2022-12-18T04:38:19.421Z,6.30
2022-12-18T04:43:22.766Z,6.80
2022-12-18T04:48:26.875Z,4.80
2022-12-18T04:53:30.269Z,7.30
2022-12-18T04:58:33.622Z,8.20
2022-12-18T05:03:38.641Z,6.10
2022-12-18T05:08:42.252Z,7.50
2022-12-18T05:13:46.709Z,8.60
2022-12-18T05:18:50.003Z,9.60
2022-12-18T05:23:53.337Z,8.40
2022-12-18T05:28:56.613Z,8.40
2022-12-18T05:33:59.906Z,5.50
2022-12-18T05:39:03.345Z,10.00
2022-12-18T05:44:07.218Z,8.00
2022-12-18T05:49:10.518Z,9.80
2022-12-18T05:54:13.848Z,7.90
2022-12-18T05:59:17.078Z,9.00
2022-12-18T06:04:20.507Z,10.20
2022-12-18T06:09:24.512Z,10.50
2022-12-18T06:14:27.895Z,9.20
2022-12-18T06:19:31.181Z,9.30
2022-12-18T06:24:34.551Z,8.50
2022-12-18T06:29:37.812Z,13.30
2022-12-18T06:34:41.162Z,8.30
2022-12-18T06:39:44.839Z,8.10
2022-12-18T06:44:48.413Z,10.00
2022-12-18T06:49:51.734Z,11.40
2022-12-18T06:54:55.120Z,10.20
2022-12-18T06:59:58.375Z,13.20
2022-12-18T07:05:07.474Z,8.60
2022-12-18T07:10:16.950Z,11.20
2022-12-18T07:15:20.231Z,11.20
2022-12-18T07:20:23.609Z,13.60
2022-12-18T07:25:26.982Z,13.60
2022-12-18T07:30:30.401Z,12.60
2022-12-18T07:35:35.285Z,15.00
2022-12-18T07:40:38.832Z,13.30
2022-12-18T07:45:44.539Z,11.60
2022-12-18T07:50:48.218Z,8.10
2022-12-18T07:56:25.948Z,12.00
2022-12-18T08:01:24.007Z,9.20
2022-12-18T08:06:27.579Z,7.30
2022-12-18T08:11:31.340Z,8.70
2022-12-18T08:16:34.949Z,15.00
2022-12-18T08:21:38.999Z,13.40
2022-12-18T08:26:45.578Z,11.20
2022-12-18T08:31:55.575Z,13.90
2022-12-18T08:36:58.968Z,15.90
2022-12-18T08:42:21.374Z,16.10
2022-12-18T08:47:24.954Z,15.50
2022-12-18T08:52:29.521Z,15.00
2022-12-18T08:57:32.873Z,16.00
2022-12-18T09:02:36.453Z,15.10
2022-12-18T09:07:40.219Z,17.60
2022-12-18T09:12:43.635Z,15.00
2022-12-18T09:17:47.078Z,17.20
2022-12-18T09:22:51.099Z,18.00
2022-12-18T09:27:54.318Z,16.80
2022-12-18T09:32:58.653Z,19.30
2022-12-18T09:38:01.990Z,16.70
2022-12-18T09:43:08.205Z,15.00
2022-12-18T09:48:21.252Z,17.00
2022-12-18T09:53:29.772Z,19.00
2022-12-18T09:58:42.115Z,17.60
2022-12-18T10:03:45.849Z,17.70
2022-12-18T10:09:16.951Z,18.10
2022-12-18T10:14:45.922Z,15.20
2022-12-18T10:19:55.023Z,17.90
2022-12-18T10:25:08.541Z,16.10
2022-12-18T10:30:18.334Z,16.40
2022-12-18T10:35:25.522Z,17.80
2022-12-18T10:40:29.018Z,13.00
2022-12-18T10:45:32.469Z,14.90
2022-12-18T10:56:06.186Z,18.10
2022-12-18T11:01:14.768Z,14.40
2022-12-18T11:06:23.155Z,21.00
2022-12-18T11:11:27.063Z,13.00
2022-12-18T11:16:36.354Z,19.00
2022-12-18T11:21:44.261Z,18.60
2022-12-18T11:26:47.885Z,17.90
2022-12-18T11:31:51.327Z,20.20
2022-12-18T11:36:56.100Z,10.50
2022-12-18T11:42:10.261Z,16.00
2022-12-18T11:47:27.452Z,18.40
2022-12-18T11:52:52.866Z,19.20
2022-12-18T11:58:31.313Z,19.90
2022-12-18T12:04:00.642Z,21.40
2022-12-18T12:09:22.707Z,21.60
2022-12-18T12:14:47.595Z,17.00
2022-12-18T12:20:13.835Z,23.60
2022-12-18T12:25:32.192Z,28.20
2022-12-18T12:31:03.333Z,21.80
2022-12-18T12:36:35.714Z,24.40
2022-12-18T12:42:01.426Z,22.00
2022-12-18T12:47:44.008Z,21.20
2022-12-18T12:52:52.442Z,20.70
2022-12-18T12:58:04.992Z,27.30
2022-12-18T13:03:25.451Z,24.70
2022-12-18T13:08:33.288Z,16.40
2022-12-18T13:13:58.164Z,24.30
2022-12-18T13:19:02.424Z,21.40
2022-12-18T13:24:28.641Z,22.30
2022-12-18T13:29:45.102Z,22.10
2022-12-18T13:34:48.925Z,18.20
2022-12-18T13:39:52.379Z,21.70
2022-12-18T13:44:55.936Z,10.60
2022-12-18T13:50:00.382Z,21.90
2022-12-18T13:55:08.240Z,20.80
2022-12-18T14:00:31.492Z,19.80
2022-12-18T14:05:40.233Z,23.60
2022-12-18T14:10:50.796Z,22.00
2022-12-18T14:15:55.373Z,19.40
2022-12-18T14:21:03.278Z,17.60
2022-12-18T14:26:24.712Z,20.20
2022-12-18T14:31:30.708Z,16.70
2022-12-18T14:36:34.260Z,16.90
2022-12-18T14:41:37.736Z,17.30
2022-12-18T14:46:44.149Z,19.40
2022-12-18T14:51:51.552Z,11.50
2022-12-18T14:57:06.678Z,13.90
2022-12-18T15:02:27.069Z,10.70
2022-12-18T15:07:46.785Z,11.90
2022-12-18T15:12:51.762Z,16.00
2022-12-18T15:17:59.765Z,10.00
2022-12-18T15:23:03.091Z,12.70
2022-12-18T15:28:37.852Z,13.20
2022-12-18T15:33:54.329Z,11.00
2022-12-18T15:39:05.056Z,16.00
2022-12-18T15:44:39.195Z,12.20
2022-12-18T15:49:42.449Z,13.00
2022-12-18T15:55:04.789Z,14.20
2022-12-18T16:00:13.365Z,18.10
2022-12-18T16:05:18.993Z,15.40
2022-12-18T16:10:22.866Z,15.40
2022-12-18T16:15:26.199Z,14.20
2022-12-18T16:20:29.524Z,15.70
2022-12-18T16:25:33.147Z,12.30
2022-12-18T16:30:37.832Z,10.70
2022-12-18T16:35:42.035Z,12.10
2022-12-18T16:41:05.027Z,16.20
2022-12-18T16:46:08.426Z,14.20
2022-12-18T16:51:11.766Z,17.60
2022-12-18T16:56:15.043Z,14.60
2022-12-18T17:01:18.669Z,14.70
2022-12-18T17:06:23.127Z,11.40
2022-12-18T17:11:28.209Z,15.90
2022-12-18T17:16:32.762Z,8.60
2022-12-18T17:21:37.158Z,9.60
2022-12-18T17:26:42.130Z,13.50
2022-12-18T17:31:45.687Z,14.40
2022-12-18T17:36:49.039Z,8.40
2022-12-18T17:41:52.605Z,15.50
2022-12-18T17:46:56.557Z,13.00
2022-12-18T17:51:59.905Z,12.70
2022-12-18T17:57:03.227Z,12.70
2022-12-18T18:02:10.277Z,11.90
2022-12-18T18:07:14.396Z,9.40
2022-12-18T18:12:36.611Z,11.70
2022-12-18T18:17:40.114Z,13.10
2022-12-18T18:22:45.363Z,13.00
2022-12-18T18:27:48.706Z,13.10
2022-12-18T18:32:53.120Z,12.30
2022-12-18T18:37:57.848Z,10.80
2022-12-18T18:43:01.101Z,11.10
2022-12-18T18:48:06.288Z,13.50
2022-12-18T18:53:09.693Z,12.90
2022-12-18T18:58:13.153Z,15.60
2022-12-18T19:03:17.113Z,16.00
2022-12-18T19:08:24.098Z,15.10
2022-12-18T19:13:30.761Z,16.40
2022-12-18T19:18:35.609Z,13.60
2022-12-18T19:23:39.396Z,14.20
2022-12-18T19:28:46.461Z,16.40
2022-12-18T19:33:49.791Z,15.30
2022-12-18T19:38:55.136Z,17.10
2022-12-18T19:43:58.933Z,13.80
2022-12-18T19:49:02.654Z,16.00
2022-12-18T19:54:06.143Z,19.50
2022-12-18T19:59:10.334Z,16.90
2022-12-18T20:04:13.785Z,18.40
2022-12-18T20:09:18.423Z,19.30
2022-12-18T20:14:23.710Z,21.20
2022-12-18T20:19:27.383Z,29.50
2022-12-18T20:24:34.422Z,34.40
2022-12-18T20:29:37.858Z,30.50
2022-12-18T20:34:41.552Z,28.40
2022-12-18T20:39:45.319Z,21.00
2022-12-18T20:44:48.653Z,20.70
2022-12-18T20:49:52.133Z,19.30
2022-12-18T20:54:55.872Z,14.50
2022-12-18T21:00:00.929Z,16.50
2022-12-18T21:05:05.062Z,15.90
2022-12-18T21:10:08.821Z,13.20
2022-12-18T21:15:12.399Z,15.00
2022-12-18T21:20:17.999Z,15.00
2022-12-18T21:25:22.528Z,14.00
2022-12-18T21:30:25.950Z,17.30
2022-12-18T21:35:29.430Z,15.00
2022-12-18T21:40:35.856Z,14.30
2022-12-18T21:45:41.575Z,13.30
2022-12-18T21:50:45.914Z,14.30
2022-12-18T21:55:58.445Z,13.10
2022-12-18T22:01:02.378Z,13.60
2022-12-18T22:06:09.680Z,13.40
2022-12-18T22:11:13.840Z,14.30
2022-12-18T22:16:18.018Z,14.10
2022-12-18T22:21:34.222Z,16.00
2022-12-18T22:26:40.127Z,17.80
2022-12-18T22:31:44.297Z,18.10
2022-12-18T22:36:49.110Z,15.40
2022-12-18T22:41:53.166Z,18.50
2022-12-18T22:47:06.487Z,19.70
2022-12-18T22:52:10.812Z,17.10
2022-12-18T22:57:14.219Z,16.20
2022-12-18T23:02:19.422Z,17.00
2022-12-18T23:07:23.132Z,16.50
2022-12-18T23:12:26.381Z,16.10
2022-12-18T23:17:30.063Z,15.50
2022-12-18T23:22:33.326Z,12.80
2022-12-18T23:27:36.588Z,13.10
2022-12-18T23:32:41.641Z,13.30
2022-12-18T23:38:02.121Z,13.00
2022-12-18T23:43:05.447Z,10.30
2022-12-18T23:48:08.776Z,11.20
2022-12-18T23:53:12.914Z,13.00
2022-12-18T23:58:21.399Z,14.80
